createdAt,value
2023-10-02T00:00:31.478Z,81.98
2023-10-02T00:01:34.831Z,81.80
2023-10-02T00:02:42.853Z,82.29
2023-10-02T00:03:46.647Z,82.29
2023-10-02T00:04:48.849Z,82.01
2023-10-02T00:05:53.614Z,82.50
2023-10-02T00:07:07.770Z,82.53
2023-10-02T00:08:26.592Z,82.24
2023-10-02T00:09:35.328Z,82.38
2023-10-02T00:10:37.350Z,82.42
2023-10-02T00:11:42.672Z,82.34
2023-10-02T00:12:59.680Z,82.65
2023-10-02T00:14:36.288Z,82.80
2023-10-02T00:15:38.365Z,82.92
2023-10-02T00:16:40.395Z,82.86
2023-10-02T00:17:45.811Z,82.51
2023-10-02T00:18:48.310Z,82.81
2023-10-02T00:19:53.969Z,83.41
2023-10-02T00:21:16.012Z,83.73
2023-10-02T00:22:37.661Z,83.49
2023-10-02T00:23:59.955Z,83.69
2023-10-02T00:25:09.071Z,83.79
2023-10-02T00:26:12.136Z,84.07
2023-10-02T00:27:14.649Z,84.14
2023-10-02T00:28:31.788Z,84.09
2023-10-02T00:29:34.130Z,84.16
2023-10-02T00:30:39.019Z,84.04
2023-10-02T00:31:43.962Z,84.12
2023-10-02T00:32:48.713Z,84.27
2023-10-02T00:33:52.037Z,84.07
2023-10-02T00:34:54.366Z,84.48
2023-10-02T00:35:57.932Z,84.69
2023-10-02T00:37:07.264Z,84.33
2023-10-02T00:38:09.278Z,84.43
2023-10-02T00:39:26.242Z,84.50
2023-10-02T00:40:30.301Z,84.65
2023-10-02T00:41:33.742Z,84.06
2023-10-02T00:42:38.163Z,84.50
2023-10-02T00:43:46.988Z,84.33
2023-10-02T00:45:03.452Z,84.26
2023-10-02T00:46:05.476Z,83.95
2023-10-02T00:47:07.560Z,84.58
2023-10-02T00:48:29.788Z,84.38
2023-10-02T00:49:36.823Z,84.30
2023-10-02T00:50:50.462Z,84.28
2023-10-02T00:52:02.255Z,84.35
2023-10-02T00:53:07.181Z,84.37
2023-10-02T00:54:25.472Z,84.13
2023-10-02T00:55:36.775Z,83.92
2023-10-02T00:56:39.939Z,83.80
2023-10-02T00:57:42.499Z,83.80
2023-10-02T00:58:45.741Z,84.13
2023-10-02T00:59:48.009Z,84.14
2023-10-02T01:00:52.448Z,83.74
2023-10-02T01:01:54.619Z,83.30
2023-10-02T01:02:58.872Z,83.90
2023-10-02T01:04:11.221Z,84.10
2023-10-02T01:05:18.698Z,83.86
2023-10-02T01:06:23.292Z,83.79
2023-10-02T01:07:25.306Z,83.98
2023-10-02T01:08:44.671Z,83.93
2023-10-02T01:10:06.818Z,84.16
2023-10-02T01:11:08.900Z,84.65
2023-10-02T01:12:12.319Z,84.23
2023-10-02T01:13:14.368Z,84.14
2023-10-02T01:14:36.331Z,84.31
2023-10-02T01:15:49.293Z,84.11
2023-10-02T01:16:52.644Z,84.52
2023-10-02T01:17:55.581Z,84.38
2023-10-02T01:18:58.612Z,84.66
2023-10-02T01:20:10.154Z,83.91
2023-10-02T01:21:15.701Z,84.43
2023-10-02T01:22:27.442Z,84.35
2023-10-02T01:23:32.630Z,84.31
2023-10-02T01:24:34.659Z,84.70
2023-10-02T01:25:37.755Z,84.00
2023-10-02T01:26:41.965Z,84.39
2023-10-02T01:27:52.333Z,84.59
2023-10-02T01:28:56.078Z,84.98
2023-10-02T01:30:16.033Z,84.55
2023-10-02T01:31:33.682Z,84.46
2023-10-02T01:32:36.506Z,84.86
2023-10-02T01:33:39.206Z,84.92
2023-10-02T01:34:41.616Z,84.93
2023-10-02T01:35:48.130Z,84.80
2023-10-02T01:36:50.345Z,84.63
2023-10-02T01:37:54.011Z,85.01
2023-10-02T01:39:00.984Z,84.73
2023-10-02T01:40:23.222Z,85.03
2023-10-02T01:41:25.344Z,84.82
2023-10-02T01:42:28.608Z,85.01
2023-10-02T01:43:33.520Z,85.05
2023-10-02T01:44:55.491Z,84.96
2023-10-02T01:46:01.738Z,85.21
2023-10-02T01:47:05.849Z,84.65
2023-10-02T01:48:09.531Z,85.11
2023-10-02T01:49:25.736Z,85.19
2023-10-02T01:50:30.036Z,85.26
2023-10-02T01:51:33.324Z,84.92
2023-10-02T01:52:50.926Z,85.13
2023-10-02T01:54:04.632Z,85.26
2023-10-02T01:55:07.660Z,85.00
2023-10-02T01:56:13.450Z,85.27
2023-10-02T01:57:26.073Z,85.26
2023-10-02T01:58:29.073Z,85.26
2023-10-02T01:59:31.101Z,85.11
2023-10-02T02:00:36.358Z,84.97
2023-10-02T02:01:48.403Z,85.34
2023-10-02T02:03:10.650Z,84.97
2023-10-02T02:04:12.814Z,85.27
2023-10-02T02:05:15.919Z,85.34
2023-10-02T02:06:22.213Z,85.28
2023-10-02T02:07:24.174Z,85.17
2023-10-02T02:08:26.239Z,85.24
2023-10-02T02:09:32.456Z,85.05
2023-10-02T02:10:34.757Z,84.85
2023-10-02T02:11:37.077Z,85.07
2023-10-02T02:12:59.105Z,85.00
2023-10-02T02:14:03.761Z,85.44
2023-10-02T02:15:07.519Z,85.58
2023-10-02T02:16:16.306Z,85.85
2023-10-02T02:17:25.901Z,85.86
2023-10-02T02:18:28.851Z,85.43
2023-10-02T02:19:32.066Z,85.78
2023-10-02T02:20:46.263Z,85.91
2023-10-02T02:21:48.250Z,85.83
2023-10-02T02:22:50.319Z,85.75
2023-10-02T02:24:04.594Z,85.46
2023-10-02T02:25:06.985Z,85.59
2023-10-02T02:26:12.033Z,85.50
2023-10-02T02:27:15.224Z,85.48
2023-10-02T02:28:17.512Z,85.44
2023-10-02T02:29:26.173Z,84.93
2023-10-02T02:30:28.267Z,84.88
2023-10-02T02:31:30.828Z,85.07
2023-10-02T02:32:45.409Z,84.99
2023-10-02T02:33:53.271Z,85.29
2023-10-02T02:35:02.620Z,85.04
2023-10-02T02:36:07.676Z,85.15
2023-10-02T02:37:10.132Z,85.09
2023-10-02T02:38:17.705Z,85.01
2023-10-02T02:39:23.579Z,85.04
2023-10-02T02:40:30.124Z,84.63
2023-10-02T02:41:32.200Z,84.67
2023-10-02T02:42:34.240Z,84.74
2023-10-02T02:43:39.926Z,84.45
2023-10-02T02:44:44.792Z,84.93
2023-10-02T02:45:47.257Z,85.28
2023-10-02T02:46:55.340Z,84.91
2023-10-02T02:48:07.796Z,85.08
2023-10-02T02:49:12.335Z,85.11
2023-10-02T02:50:16.184Z,85.58
2023-10-02T02:51:23.091Z,85.70
2023-10-02T02:52:34.070Z,85.46
2023-10-02T02:53:36.295Z,85.34
2023-10-02T02:54:45.683Z,85.65
2023-10-02T02:56:11.430Z,85.37
2023-10-02T02:57:13.993Z,85.53
2023-10-02T02:58:15.990Z,84.87
2023-10-02T02:59:19.581Z,85.51
2023-10-02T03:00:36.863Z,85.59
2023-10-02T03:01:39.138Z,85.50
2023-10-02T03:02:43.036Z,85.42
2023-10-02T03:03:45.681Z,85.16
2023-10-02T03:04:49.036Z,85.20
2023-10-02T03:05:54.154Z,85.48
2023-10-02T03:07:10.110Z,85.41
2023-10-02T03:08:14.838Z,85.39
2023-10-02T03:09:24.889Z,85.59
2023-10-02T03:10:27.551Z,86.04
2023-10-02T03:11:30.665Z,85.98
2023-10-02T03:12:32.822Z,86.19
2023-10-02T03:13:35.871Z,86.02
2023-10-02T03:14:37.993Z,86.02
2023-10-02T03:15:48.828Z,86.47
2023-10-02T03:16:52.817Z,85.90
2023-10-02T03:18:00.360Z,86.34
2023-10-02T03:19:04.928Z,85.96
2023-10-02T03:20:23.106Z,85.85
2023-10-02T03:21:25.839Z,85.72
2023-10-02T03:22:29.368Z,86.46
2023-10-02T03:23:32.174Z,85.87
2023-10-02T03:24:35.066Z,86.26
2023-10-02T03:25:47.157Z,85.88
2023-10-02T03:26:54.386Z,85.99
2023-10-02T03:27:58.763Z,86.40
2023-10-02T03:29:04.501Z,86.21
2023-10-02T03:30:07.674Z,86.20
2023-10-02T03:31:18.356Z,86.17
2023-10-02T03:32:21.682Z,86.41
2023-10-02T03:33:23.889Z,86.72
2023-10-02T03:34:36.057Z,86.24
2023-10-02T03:35:41.522Z,86.71
2023-10-02T03:36:44.057Z,86.97
2023-10-02T03:37:52.956Z,86.42
2023-10-02T03:38:58.566Z,86.60
2023-10-02T03:40:01.547Z,86.76
2023-10-02T03:41:04.984Z,86.61
2023-10-02T03:42:12.886Z,86.33
2023-10-02T03:43:30.484Z,86.51
2023-10-02T03:44:34.725Z,85.74
2023-10-02T03:45:40.432Z,86.41
2023-10-02T03:46:43.497Z,86.72
2023-10-02T03:47:45.681Z,86.74
2023-10-02T03:48:52.908Z,86.46
2023-10-02T03:50:02.510Z,86.55
2023-10-02T03:51:05.633Z,85.94
2023-10-02T03:52:07.884Z,86.36
2023-10-02T03:53:30.152Z,86.15
2023-10-02T03:54:33.082Z,85.33
2023-10-02T03:55:35.132Z,85.90
2023-10-02T03:56:44.162Z,85.80
2023-10-02T03:57:49.108Z,85.62
2023-10-02T03:58:53.568Z,85.99
2023-10-02T03:59:55.640Z,85.63
2023-10-02T04:00:58.460Z,85.44
2023-10-02T04:02:19.395Z,85.48
2023-10-02T04:03:21.599Z,85.40
2023-10-02T04:04:24.721Z,85.92
2023-10-02T04:05:45.033Z,85.47
2023-10-02T04:06:48.565Z,85.71
2023-10-02T04:07:50.698Z,85.76
2023-10-02T04:09:07.286Z,85.19
2023-10-02T04:10:09.866Z,84.98
2023-10-02T04:11:13.604Z,85.18
2023-10-02T04:12:18.835Z,85.39
2023-10-02T04:13:24.623Z,84.84
2023-10-02T04:14:39.917Z,84.86
2023-10-02T04:15:45.218Z,85.32
2023-10-02T04:16:53.124Z,85.19
2023-10-02T04:17:55.276Z,85.19
2023-10-02T04:19:02.090Z,85.19
2023-10-02T04:20:07.038Z,84.98
2023-10-02T04:21:13.538Z,85.24
2023-10-02T04:22:23.924Z,85.35
2023-10-02T04:23:27.167Z,85.56
2023-10-02T04:24:29.158Z,85.29
2023-10-02T04:25:36.635Z,85.55
2023-10-02T04:26:43.206Z,84.97
2023-10-02T04:27:45.557Z,84.91
2023-10-02T04:28:56.732Z,84.83
2023-10-02T04:30:07.867Z,85.04
2023-10-02T04:31:10.340Z,85.58
2023-10-02T04:32:13.821Z,85.70
2023-10-02T04:33:15.924Z,85.40
2023-10-02T04:34:31.000Z,85.92
2023-10-02T04:35:46.002Z,85.82
2023-10-02T04:36:48.051Z,86.09
2023-10-02T04:37:50.070Z,86.30
2023-10-02T04:38:56.787Z,86.18
2023-10-02T04:39:58.882Z,86.14
2023-10-02T04:41:05.100Z,85.88
2023-10-02T04:42:25.551Z,86.15
2023-10-02T04:43:27.569Z,86.21
2023-10-02T04:44:29.545Z,86.31
2023-10-02T04:45:37.765Z,86.29
2023-10-02T04:46:47.087Z,85.83
2023-10-02T04:47:56.301Z,86.37
2023-10-02T04:49:01.445Z,86.63
2023-10-02T04:50:05.800Z,86.27
2023-10-02T04:51:13.545Z,86.34
2023-10-02T04:52:15.636Z,86.25
2023-10-02T04:53:17.715Z,86.17
2023-10-02T04:54:19.792Z,86.53
2023-10-02T04:55:44.447Z,86.64
2023-10-02T04:56:47.883Z,86.19
2023-10-02T04:57:51.676Z,86.05
2023-10-02T04:58:58.905Z,86.05
2023-10-02T05:00:02.456Z,85.52
2023-10-02T05:01:05.234Z,85.79
2023-10-02T05:02:22.699Z,85.55
2023-10-02T05:03:27.426Z,86.05
2023-10-02T05:04:32.425Z,85.94
2023-10-02T05:05:37.894Z,86.45
2023-10-02T05:06:46.298Z,86.03
2023-10-02T05:07:54.178Z,85.85
2023-10-02T05:08:56.299Z,86.04
2023-10-02T05:09:58.313Z,86.42
2023-10-02T05:11:09.492Z,86.78
2023-10-02T05:12:24.065Z,86.47
2023-10-02T05:13:44.496Z,86.50
2023-10-02T05:14:53.155Z,86.23
2023-10-02T05:16:08.333Z,86.38
2023-10-02T05:17:20.294Z,86.21
2023-10-02T05:18:23.913Z,86.26
2023-10-02T05:19:46.135Z,86.08
2023-10-02T05:20:49.104Z,86.19
2023-10-02T05:21:51.809Z,86.20
2023-10-02T05:23:00.533Z,86.34
2023-10-02T05:24:05.788Z,86.44
2023-10-02T05:25:08.637Z,86.48
2023-10-02T05:26:30.825Z,86.45
2023-10-02T05:27:39.750Z,86.46
2023-10-02T05:28:44.754Z,86.04
2023-10-02T05:29:47.252Z,85.97
2023-10-02T05:30:49.766Z,86.39
2023-10-02T05:31:51.916Z,86.24
2023-10-02T05:32:57.783Z,86.35
2023-10-02T05:33:59.989Z,86.60
2023-10-02T05:35:14.329Z,86.72
2023-10-02T05:36:22.817Z,86.66
2023-10-02T05:37:24.972Z,86.74
2023-10-02T05:38:30.082Z,86.83
2023-10-02T05:39:35.240Z,86.62
2023-10-02T05:40:40.463Z,86.23
2023-10-02T05:41:46.426Z,87.26
2023-10-02T05:43:01.019Z,86.42
2023-10-02T05:44:03.284Z,86.79
2023-10-02T05:45:08.709Z,86.88
2023-10-02T05:46:18.499Z,86.80
2023-10-02T05:47:22.985Z,86.96
2023-10-02T05:48:28.018Z,86.90
2023-10-02T05:49:31.485Z,86.92
2023-10-02T05:50:34.584Z,86.99
2023-10-02T05:51:49.237Z,87.02
2023-10-02T05:52:52.438Z,86.80
2023-10-02T05:53:55.196Z,86.71
2023-10-02T05:54:57.792Z,86.94
2023-10-02T05:56:12.296Z,86.67
2023-10-02T05:57:18.658Z,86.70
2023-10-02T05:58:32.704Z,87.10
2023-10-02T05:59:45.385Z,87.02
2023-10-02T06:00:53.221Z,86.58
2023-10-02T06:01:56.481Z,86.94
2023-10-02T06:03:02.724Z,86.87
2023-10-02T06:04:07.861Z,86.97
2023-10-02T06:05:13.741Z,86.54
2023-10-02T06:06:27.399Z,86.42
2023-10-02T06:08:01.772Z,86.57
2023-10-02T06:09:05.098Z,86.51
2023-10-02T06:10:10.796Z,86.36
2023-10-02T06:11:36.147Z,86.25
2023-10-02T06:12:45.075Z,86.49
2023-10-02T06:13:47.430Z,87.00
2023-10-02T06:14:50.921Z,86.86
2023-10-02T06:15:57.194Z,86.78
2023-10-02T06:17:00.254Z,86.30
2023-10-02T06:18:03.532Z,86.62
2023-10-02T06:19:08.409Z,86.74
2023-10-02T06:20:19.537Z,86.59
2023-10-02T06:21:22.096Z,85.91
2023-10-02T06:22:24.558Z,85.62
2023-10-02T06:23:31.498Z,86.25
2023-10-02T06:24:33.865Z,85.44
2023-10-02T06:25:39.831Z,84.97
2023-10-02T06:27:00.418Z,85.76
2023-10-02T06:28:22.819Z,84.79
2023-10-02T06:29:46.446Z,85.40
2023-10-02T06:30:49.619Z,85.31
2023-10-02T06:32:06.773Z,86.10
2023-10-02T06:33:09.836Z,85.09
2023-10-02T06:34:15.388Z,85.65
2023-10-02T06:35:19.959Z,84.98
2023-10-02T06:36:23.409Z,85.67
2023-10-02T06:37:38.013Z,85.26
2023-10-02T06:38:42.348Z,85.01
2023-10-02T06:40:18.128Z,85.24
2023-10-02T06:41:20.844Z,84.20
2023-10-02T06:42:43.127Z,83.72
2023-10-02T06:43:45.390Z,84.04
2023-10-02T06:44:55.207Z,85.02
2023-10-02T06:46:10.757Z,84.71
2023-10-02T06:47:14.814Z,84.57
2023-10-02T06:48:22.064Z,84.15
2023-10-02T06:49:24.721Z,84.09
2023-10-02T06:50:32.253Z,83.99
2023-10-02T06:51:34.914Z,84.20
2023-10-02T06:52:38.681Z,84.26
2023-10-02T06:53:44.815Z,84.06
2023-10-02T06:54:50.437Z,83.03
2023-10-02T06:56:00.570Z,82.60
2023-10-02T06:57:13.158Z,83.46
2023-10-02T06:58:16.490Z,83.87
2023-10-02T06:59:21.508Z,83.44
2023-10-02T07:00:25.352Z,83.71
2023-10-02T07:01:31.590Z,82.62
2023-10-02T07:02:34.278Z,81.84
2023-10-02T07:03:41.012Z,81.89
2023-10-02T07:04:45.973Z,81.11
2023-10-02T07:05:49.609Z,80.99
2023-10-02T07:06:51.933Z,81.22
2023-10-02T07:08:00.912Z,80.68
2023-10-02T07:09:12.761Z,81.93
2023-10-02T07:10:15.285Z,81.72
2023-10-02T07:11:20.587Z,81.55
2023-10-02T07:12:23.752Z,80.35
2023-10-02T07:13:26.017Z,81.08
2023-10-02T07:14:36.743Z,81.32
2023-10-02T07:15:38.963Z,79.32
2023-10-02T07:16:44.317Z,79.13
2023-10-02T07:17:50.404Z,78.77
2023-10-02T07:18:55.065Z,78.23
2023-10-02T07:20:02.364Z,78.42
2023-10-02T07:21:10.814Z,78.28
2023-10-02T07:22:18.083Z,78.28
2023-10-02T07:23:23.808Z,79.45
2023-10-02T07:24:30.159Z,79.19
2023-10-02T07:25:32.377Z,79.91
2023-10-02T07:26:50.897Z,79.58
2023-10-02T07:27:53.117Z,79.50
2023-10-02T07:28:55.207Z,78.55
2023-10-02T07:29:58.831Z,78.25
2023-10-02T07:31:01.096Z,77.67
2023-10-02T07:32:03.216Z,78.82
2023-10-02T07:33:05.897Z,79.08
2023-10-02T07:34:09.500Z,79.45
2023-10-02T07:35:18.570Z,77.47
2023-10-02T07:36:20.585Z,76.82
2023-10-02T07:37:23.617Z,76.45
2023-10-02T07:38:31.785Z,76.14
2023-10-02T07:39:36.805Z,75.95
2023-10-02T07:40:48.301Z,76.58
2023-10-02T07:42:01.437Z,76.98
2023-10-02T07:43:05.466Z,77.57
2023-10-02T07:44:10.113Z,77.25
2023-10-02T07:45:31.966Z,75.82
2023-10-02T07:46:34.445Z,75.24
2023-10-02T07:47:40.769Z,74.75
2023-10-02T07:48:42.926Z,73.69
2023-10-02T07:50:04.428Z,74.29
2023-10-02T07:51:12.267Z,75.34
2023-10-02T07:52:28.133Z,75.05
2023-10-02T07:53:42.192Z,75.12
2023-10-02T07:54:47.247Z,74.76
2023-10-02T07:55:49.384Z,76.13
2023-10-02T07:56:51.546Z,76.22
2023-10-02T07:57:59.498Z,75.47
2023-10-02T07:59:03.122Z,74.48
2023-10-02T08:00:27.791Z,74.86
2023-10-02T08:01:30.015Z,73.04
2023-10-02T08:02:35.067Z,72.32
2023-10-02T08:03:44.684Z,71.85
2023-10-02T08:04:48.997Z,72.61
2023-10-02T08:05:51.240Z,72.78
2023-10-02T08:07:09.575Z,72.53
2023-10-02T08:08:17.986Z,71.76
2023-10-02T08:09:38.582Z,72.05
2023-10-02T08:10:54.704Z,71.09
2023-10-02T08:11:57.947Z,70.47
2023-10-02T08:13:06.606Z,70.59
2023-10-02T08:14:16.776Z,70.67
2023-10-02T08:15:28.268Z,70.66
2023-10-02T08:16:34.442Z,72.18
2023-10-02T08:17:42.660Z,71.56
2023-10-02T08:18:59.591Z,72.24
2023-10-02T08:20:17.446Z,71.45
2023-10-02T08:21:24.878Z,69.94
2023-10-02T08:22:45.752Z,69.34
2023-10-02T08:23:54.074Z,70.09
2023-10-02T08:24:57.382Z,70.47
2023-10-02T08:26:19.239Z,69.59
2023-10-02T08:27:24.061Z,69.65
2023-10-02T08:28:26.086Z,69.69
2023-10-02T08:29:28.615Z,69.74
2023-10-02T08:30:34.122Z,69.21
2023-10-02T08:31:37.585Z,67.91
2023-10-02T08:32:39.827Z,67.60
2023-10-02T08:33:52.853Z,68.78
2023-10-02T08:35:15.460Z,69.38
2023-10-02T08:36:21.471Z,67.40
2023-10-02T08:37:24.691Z,67.15
2023-10-02T08:38:27.989Z,67.56
2023-10-02T08:39:30.163Z,67.00
2023-10-02T08:40:33.959Z,65.56
2023-10-02T08:41:44.965Z,65.36
2023-10-02T08:42:54.120Z,65.80
2023-10-02T08:43:56.284Z,66.10
2023-10-02T08:45:01.910Z,64.50
2023-10-02T08:46:06.626Z,64.83
2023-10-02T08:47:09.335Z,64.13
2023-10-02T08:48:13.326Z,63.27
2023-10-02T08:49:15.347Z,63.57
2023-10-02T08:50:17.781Z,63.44
2023-10-02T08:51:30.335Z,63.67
2023-10-02T08:52:48.332Z,64.50
2023-10-02T08:53:52.181Z,64.09
2023-10-02T08:54:54.182Z,61.01
2023-10-02T08:56:02.122Z,60.53
2023-10-02T08:57:08.327Z,59.79
2023-10-02T08:58:20.446Z,61.06
2023-10-02T08:59:28.677Z,59.29
2023-10-02T09:00:31.138Z,59.64
2023-10-02T09:01:35.255Z,59.57
2023-10-02T09:02:41.920Z,59.57
2023-10-02T09:04:05.052Z,59.22
2023-10-02T09:05:10.919Z,58.10
2023-10-02T09:06:29.616Z,58.32
2023-10-02T09:08:02.090Z,58.49
2023-10-02T09:09:24.009Z,58.97
2023-10-02T09:10:26.953Z,58.24
2023-10-02T09:11:35.470Z,57.57
2023-10-02T09:12:50.180Z,57.43
2023-10-02T09:14:23.366Z,57.70
2023-10-02T09:15:32.803Z,57.85
2023-10-02T09:16:36.509Z,57.63
2023-10-02T09:17:46.194Z,58.82
2023-10-02T09:19:06.844Z,57.00
2023-10-02T09:20:09.257Z,55.40
2023-10-02T09:21:17.888Z,55.13
2023-10-02T09:22:20.025Z,55.94
2023-10-02T09:23:25.209Z,54.92
2023-10-02T09:24:28.877Z,56.57
2023-10-02T09:25:38.324Z,56.73
2023-10-02T09:26:44.392Z,57.36
2023-10-02T09:27:56.167Z,57.78
2023-10-02T09:29:02.162Z,56.83
2023-10-02T09:30:20.906Z,57.03
2023-10-02T09:31:26.067Z,56.33
2023-10-02T09:32:28.284Z,54.30
2023-10-02T09:33:47.449Z,55.18
2023-10-02T09:35:36.675Z,55.23
2023-10-02T09:37:07.400Z,55.41
2023-10-02T09:38:07.589Z,54.90
2023-10-02T09:39:28.481Z,53.89
2023-10-02T09:40:52.376Z,53.95
2023-10-02T09:42:07.107Z,53.00
2023-10-02T09:43:09.145Z,53.38
2023-10-02T09:44:16.785Z,53.39
2023-10-02T09:45:32.595Z,53.94
2023-10-02T09:46:36.662Z,55.95
2023-10-02T09:47:47.736Z,56.60
2023-10-02T09:49:04.308Z,55.56
2023-10-02T09:50:28.296Z,54.94
2023-10-02T09:52:16.565Z,53.88
2023-10-02T09:53:18.803Z,54.27
2023-10-02T09:54:29.778Z,52.09
2023-10-02T09:55:43.857Z,51.77
2023-10-02T09:57:06.720Z,51.30
2023-10-02T09:58:27.827Z,51.71
2023-10-02T09:59:29.841Z,50.58
2023-10-02T10:00:38.718Z,49.81
2023-10-02T10:01:40.901Z,49.83
2023-10-02T10:02:45.833Z,49.32
2023-10-02T10:03:50.793Z,51.35
2023-10-02T10:05:14.541Z,50.36
2023-10-02T10:06:20.644Z,49.81
2023-10-02T10:07:39.414Z,50.53
2023-10-02T10:09:19.218Z,52.17
2023-10-02T10:10:49.722Z,48.98
2023-10-02T10:12:12.437Z,49.50
2023-10-02T10:13:26.417Z,49.02
2023-10-02T10:14:43.634Z,46.80
2023-10-02T10:15:49.320Z,47.86
2023-10-02T10:16:51.403Z,47.64
2023-10-02T10:17:54.548Z,47.76
2023-10-02T10:19:19.258Z,46.22
2023-10-02T10:20:21.646Z,47.73
2023-10-02T10:21:58.200Z,48.33
2023-10-02T10:23:03.269Z,47.17
2023-10-02T10:25:00.326Z,45.90
2023-10-02T10:26:08.952Z,45.58
2023-10-02T10:27:11.095Z,47.38
2023-10-02T10:28:27.129Z,46.77
2023-10-02T10:29:39.298Z,46.27
2023-10-02T10:30:45.877Z,44.31
2023-10-02T10:31:57.423Z,43.37
2023-10-02T10:33:11.897Z,43.40
2023-10-02T10:35:13.387Z,42.58
2023-10-02T10:36:34.446Z,43.13
2023-10-02T10:37:48.861Z,44.53
2023-10-02T10:38:51.991Z,41.21
2023-10-02T10:40:00.399Z,43.04
2023-10-02T10:41:16.148Z,43.18
2023-10-02T10:42:18.191Z,44.34
2023-10-02T10:43:20.238Z,43.60
2023-10-02T10:44:22.407Z,42.49
2023-10-02T10:45:25.630Z,45.63
2023-10-02T10:46:31.195Z,45.31
2023-10-02T10:47:39.824Z,44.11
2023-10-02T10:48:42.203Z,43.30
2023-10-02T10:49:55.624Z,42.85
2023-10-02T10:51:24.056Z,43.64
2023-10-02T10:52:36.579Z,43.17
2023-10-02T10:53:42.624Z,41.92
2023-10-02T10:54:50.362Z,39.49
2023-10-02T10:56:21.311Z,38.59
2023-10-02T10:57:24.620Z,40.10
2023-10-02T10:58:34.816Z,39.99
2023-10-02T10:59:37.502Z,40.28
2023-10-02T11:00:41.765Z,40.14
2023-10-02T11:02:10.257Z,39.29
2023-10-02T11:03:21.548Z,38.07
2023-10-02T11:04:28.613Z,37.29
2023-10-02T11:05:35.414Z,37.78
2023-10-02T11:06:42.886Z,38.54
2023-10-02T11:07:48.887Z,38.29
2023-10-02T11:09:19.410Z,34.56
2023-10-02T11:10:26.250Z,35.05
2023-10-02T11:11:31.994Z,33.03
2023-10-02T11:12:41.045Z,33.32
2023-10-02T11:13:53.218Z,34.03
2023-10-02T11:14:56.520Z,36.05
2023-10-02T11:16:00.437Z,32.94
2023-10-02T11:17:06.311Z,34.35
2023-10-02T11:18:21.846Z,32.83
2023-10-02T11:19:26.974Z,34.19
2023-10-02T11:20:34.932Z,33.84
2023-10-02T11:21:46.335Z,34.96
2023-10-02T11:22:50.231Z,35.08
2023-10-02T11:23:54.871Z,35.73
2023-10-02T11:25:22.443Z,34.17
2023-10-02T11:26:24.671Z,34.61
2023-10-02T11:27:30.591Z,36.56
2023-10-02T11:28:33.596Z,37.12
2023-10-02T11:29:42.716Z,37.23
2023-10-02T11:31:00.070Z,35.84
2023-10-02T11:32:20.759Z,36.28
2023-10-02T11:33:29.382Z,38.29
2023-10-02T11:34:33.846Z,38.34
2023-10-02T11:35:44.996Z,35.88
2023-10-02T11:36:54.239Z,35.36
2023-10-02T11:37:57.261Z,33.74
2023-10-02T11:38:59.583Z,35.45
2023-10-02T11:40:01.946Z,34.09
2023-10-02T11:41:05.677Z,33.89
2023-10-02T11:42:08.472Z,33.51
2023-10-02T11:43:10.578Z,34.83
2023-10-02T11:44:13.949Z,33.34
2023-10-02T11:45:16.587Z,35.50
2023-10-02T11:46:18.677Z,35.67
2023-10-02T11:47:20.772Z,34.47
2023-10-02T11:48:27.144Z,32.22
2023-10-02T11:49:30.836Z,30.92
2023-10-02T11:50:32.894Z,32.68
2023-10-02T11:51:35.017Z,31.57
2023-10-02T11:52:37.122Z,30.87
2023-10-02T11:53:39.235Z,31.99
2023-10-02T11:54:41.276Z,30.91
2023-10-02T11:55:43.250Z,32.88
2023-10-02T11:56:48.158Z,33.12
2023-10-02T11:57:52.870Z,34.30
2023-10-02T11:58:55.136Z,33.43
2023-10-02T11:59:57.131Z,31.72
2023-10-02T12:01:05.743Z,31.32
2023-10-02T12:02:12.156Z,32.04
2023-10-02T12:03:15.564Z,32.29
2023-10-02T12:04:17.753Z,31.08
2023-10-02T12:05:20.137Z,32.72
2023-10-02T12:06:23.058Z,32.04
2023-10-02T12:07:25.096Z,32.57
2023-10-02T12:08:27.170Z,34.52
2023-10-02T12:09:29.340Z,35.77
2023-10-02T12:10:31.997Z,35.31
2023-10-02T12:11:35.455Z,33.36
2023-10-02T12:12:37.535Z,33.41
2023-10-02T12:13:39.556Z,34.35
2023-10-02T12:14:41.596Z,35.88
2023-10-02T12:15:47.455Z,36.13
2023-10-02T12:16:49.484Z,35.85
2023-10-02T12:17:51.552Z,36.46
2023-10-02T12:18:53.900Z,36.60
2023-10-02T12:19:56.201Z,36.27
2023-10-02T12:20:58.207Z,37.93
2023-10-02T12:22:08.700Z,37.94
2023-10-02T12:23:11.708Z,38.60
2023-10-02T12:24:16.092Z,36.58
2023-10-02T12:25:18.073Z,34.92
2023-10-02T12:26:28.566Z,34.91
2023-10-02T12:27:31.673Z,36.38
2023-10-02T12:28:33.647Z,37.36
2023-10-02T12:29:35.685Z,38.65
2023-10-02T12:30:37.751Z,37.51
2023-10-02T12:31:40.083Z,37.03
2023-10-02T12:32:43.363Z,36.18
2023-10-02T12:33:46.263Z,35.67
2023-10-02T12:34:48.372Z,35.38
2023-10-02T12:35:50.409Z,35.69
2023-10-02T12:36:55.086Z,35.39
2023-10-02T12:37:57.141Z,35.20
2023-10-02T12:38:59.313Z,36.14
2023-10-02T12:40:01.406Z,35.91
2023-10-02T12:41:03.459Z,36.36
2023-10-02T12:42:06.397Z,36.35
2023-10-02T12:43:10.202Z,37.74
2023-10-02T12:44:12.343Z,37.72
2023-10-02T12:45:15.304Z,36.84
2023-10-02T12:46:17.460Z,37.34
2023-10-02T12:47:19.564Z,38.04
2023-10-02T12:48:21.609Z,37.57
2023-10-02T12:49:23.623Z,37.95
2023-10-02T12:50:25.750Z,38.03
2023-10-02T12:51:29.135Z,38.29
2023-10-02T12:52:34.059Z,38.45
2023-10-02T12:53:37.405Z,38.34
2023-10-02T12:54:39.407Z,39.44
2023-10-02T12:55:44.601Z,37.37
2023-10-02T12:56:47.421Z,39.08
2023-10-02T12:57:50.095Z,40.65
2023-10-02T12:58:53.589Z,41.04
2023-10-02T12:59:55.609Z,41.75
2023-10-02T13:00:57.650Z,39.70
2023-10-02T13:01:59.718Z,41.00
2023-10-02T13:03:01.839Z,40.64
2023-10-02T13:04:03.938Z,41.80
2023-10-02T13:05:06.947Z,40.38
2023-10-02T13:06:13.327Z,41.60
2023-10-02T13:07:15.578Z,40.48
2023-10-02T13:08:17.631Z,39.10
2023-10-02T13:09:20.385Z,38.54
2023-10-02T13:10:24.258Z,39.90
2023-10-02T13:11:26.366Z,40.54
2023-10-02T13:12:28.459Z,37.45
2023-10-02T13:13:30.430Z,38.28
2023-10-02T13:14:32.645Z,39.17
2023-10-02T13:15:35.848Z,39.51
2023-10-02T13:16:38.818Z,41.29
2023-10-02T13:17:40.887Z,42.58
2023-10-02T13:18:45.115Z,41.84
2023-10-02T13:19:47.096Z,41.44
2023-10-02T13:20:55.358Z,41.15
2023-10-02T13:21:59.356Z,41.69
2023-10-02T13:23:03.025Z,39.99
2023-10-02T13:24:07.307Z,39.06
2023-10-02T13:25:13.255Z,38.99
2023-10-02T13:26:17.682Z,39.74
2023-10-02T13:27:19.913Z,39.36
2023-10-02T13:28:22.145Z,38.82
2023-10-02T13:29:25.652Z,38.86
2023-10-02T13:30:27.872Z,38.71
2023-10-02T13:31:29.884Z,39.61
2023-10-02T13:32:31.934Z,40.73
2023-10-02T13:33:33.989Z,40.38
2023-10-02T13:34:35.960Z,38.99
2023-10-02T13:35:41.414Z,40.13
2023-10-02T13:36:43.488Z,38.41
2023-10-02T13:37:45.530Z,39.87
2023-10-02T13:38:47.576Z,38.95
2023-10-02T13:39:49.586Z,39.29
2023-10-02T13:40:51.592Z,39.33
2023-10-02T13:41:54.028Z,39.23
2023-10-02T13:42:57.633Z,39.17
2023-10-02T13:44:01.243Z,38.56
2023-10-02T13:45:03.382Z,40.51
2023-10-02T13:46:16.046Z,41.15
2023-10-02T13:47:27.088Z,39.78
2023-10-02T13:48:39.446Z,39.77
2023-10-02T13:49:41.547Z,41.69
2023-10-02T13:50:57.087Z,40.54
2023-10-02T13:52:05.304Z,39.68
2023-10-02T13:53:07.649Z,40.51
2023-10-02T13:54:10.744Z,40.53
2023-10-02T13:55:23.738Z,41.71
2023-10-02T13:56:34.559Z,42.47
2023-10-02T13:57:36.908Z,41.28
2023-10-02T13:58:42.595Z,44.29
2023-10-02T13:59:44.850Z,42.14
2023-10-02T14:00:46.953Z,42.81
2023-10-02T14:01:49.920Z,44.24
2023-10-02T14:02:56.202Z,44.68
2023-10-02T14:03:58.257Z,44.75
2023-10-02T14:05:02.461Z,43.79
2023-10-02T14:06:09.137Z,44.91
2023-10-02T14:07:11.182Z,44.40
2023-10-02T14:08:13.390Z,44.26
2023-10-02T14:09:15.406Z,45.56
2023-10-02T14:10:17.793Z,46.02
2023-10-02T14:11:22.307Z,45.23
2023-10-02T14:12:27.937Z,45.05
2023-10-02T14:13:30.473Z,43.78
2023-10-02T14:14:32.766Z,46.38
2023-10-02T14:15:36.829Z,46.11
2023-10-02T14:16:42.256Z,46.56
2023-10-02T14:17:48.795Z,46.70
2023-10-02T14:18:53.546Z,48.30
2023-10-02T14:19:57.283Z,45.28
2023-10-02T14:21:01.210Z,45.29
2023-10-02T14:22:03.249Z,44.52
2023-10-02T14:23:06.995Z,45.16
2023-10-02T14:24:10.888Z,46.01
2023-10-02T14:25:13.480Z,45.84
2023-10-02T14:26:16.825Z,45.39
2023-10-02T14:27:18.848Z,46.34
2023-10-02T14:28:21.311Z,44.84